Search for airport 
image banner adimage banner ad
image banner ad

EVRA - Riga

Located in Riga, Latvia

ICAO - EVRA, IATA - RIX

Data provided by Airmate  

General information

Coordinates: N56°55'25" E23°58'16"
Elevation is 37 feet MSL.
Magnetic variation is 7° East
View others Airports in Riga (city)

Operational data

Open for public use
Current time UTC:
Current local time:
Weather
METAR: EVRA 290050Z 19003KT 9999 SCT049 11/10 Q1018 NOSIG
TAF: TAF EVRA 282300Z 2900/2924 20007KT 9999 OVC020 TEMPO 2900/2906 3000 BR BKN002 PROB40 TEMPO 2902/2906 0700 FG BKN001 BECMG 2907/2909 SCT030 TEMPO 2921/2924 3000 BR
View NOTAMs / SUP AIP / TFR affecting this airport [VIEW]
Communications frequencies: [VIEW]

Runways:

RWY identifierQFULength (ft)Width (ft)SurfaceLDA (ft)
18185°10499148CONC+ASPH10499
3610499148CONC+ASPH10499

Airport contact information

Address: Riga Latvia

Other aviation service providers

Flight schools

Air Baltic

Air Baltic
training@airbaltictraining.com+37167668512
+37126393535

Airtraining Group

Airtraining Group
ht@airtraining.eu+37125474744

Bcat

Bcat

Eriva

Eriva
info@eriva.lv+37126541441

Swan Fly

Swan Fly

Repair station

Smart Lynx

Smart Lynx

Satellite view of EVRA